createdAt,value
2023-01-08T15:47:00.423Z,17.90
2023-01-08T15:49:29.996Z,19.60
2023-01-08T15:51:56.829Z,20.80
2023-01-08T15:54:24.499Z,16.80
2023-01-08T15:56:51.231Z,18.60
2023-01-08T15:59:18.079Z,18.50
2023-01-08T16:01:45.080Z,17.30
2023-01-08T16:04:12.078Z,21.70
2023-01-08T16:06:39.013Z,22.30
2023-01-08T16:09:05.974Z,23.90
2023-01-08T16:11:32.802Z,21.90
2023-01-08T16:14:00.353Z,23.40
2023-01-08T16:16:27.341Z,21.30
2023-01-08T16:18:54.183Z,22.10
2023-01-08T16:21:21.083Z,21.00
2023-01-08T16:23:47.936Z,27.80
2023-01-08T16:26:15.384Z,23.20
2023-01-08T16:28:43.247Z,26.70
2023-01-08T16:31:10.355Z,21.30
2023-01-08T16:33:37.647Z,24.30
2023-01-08T16:36:06.172Z,20.00
2023-01-08T16:38:33.656Z,24.20
2023-01-08T16:41:00.747Z,22.40
2023-01-08T16:43:28.835Z,21.90
2023-01-08T16:45:56.188Z,22.90
2023-01-08T16:48:23.109Z,23.30
2023-01-08T16:50:49.965Z,22.80
2023-01-08T16:53:17.633Z,29.00
2023-01-08T16:55:44.555Z,19.20
2023-01-08T16:58:11.491Z,24.30
2023-01-08T17:00:39.976Z,28.20
2023-01-08T17:03:06.819Z,21.50
2023-01-08T17:05:35.499Z,21.30
2023-01-08T17:08:02.800Z,17.90
2023-01-08T17:10:29.900Z,20.40
2023-01-08T17:12:56.638Z,22.40
2023-01-08T17:15:23.614Z,20.30
2023-01-08T17:17:50.833Z,20.60
2023-01-08T17:20:19.543Z,23.30
2023-01-08T17:22:49.335Z,18.50
2023-01-08T17:25:16.794Z,21.00
2023-01-08T17:27:43.834Z,20.40
2023-01-08T17:30:14.363Z,20.40
2023-01-08T17:32:41.716Z,20.60
2023-01-08T17:35:09.275Z,20.30
2023-01-08T17:37:36.321Z,19.20
2023-01-08T17:40:05.005Z,23.40
2023-01-08T17:42:31.958Z,18.90
2023-01-08T17:45:02.485Z,22.90
2023-01-08T17:47:30.139Z,19.00
2023-01-08T17:49:57.289Z,19.00
2023-01-08T17:52:24.877Z,24.90
2023-01-08T17:54:51.800Z,20.00
2023-01-08T17:57:19.353Z,19.90
2023-01-08T17:59:46.514Z,19.30
2023-01-08T18:02:16.049Z,19.90
2023-01-08T18:04:44.868Z,19.30
2023-01-08T18:07:11.747Z,21.60
2023-01-08T18:09:38.894Z,19.90
2023-01-08T18:12:06.370Z,16.70
2023-01-08T18:14:35.636Z,21.00
2023-01-08T18:17:02.832Z,20.00
2023-01-08T18:19:29.940Z,17.60
2023-01-08T18:21:56.782Z,17.10
2023-01-08T18:24:25.676Z,15.10
2023-01-08T18:26:52.728Z,17.90
2023-01-08T18:29:19.777Z,17.10
2023-01-08T18:31:46.613Z,16.70
2023-01-08T18:34:14.572Z,17.60
2023-01-08T18:36:41.946Z,19.60
2023-01-08T18:39:08.874Z,17.10
2023-01-08T18:41:55.382Z,16.80
2023-01-08T18:44:22.428Z,18.80
2023-01-08T18:46:49.397Z,18.90
2023-01-08T18:49:16.312Z,17.80
2023-01-08T18:51:43.276Z,18.20
2023-01-08T18:54:11.261Z,13.70
2023-01-08T18:56:39.292Z,15.20
2023-01-08T18:59:06.570Z,17.80
2023-01-08T19:01:34.594Z,16.50
2023-01-08T19:04:17.866Z,25.40
2023-01-08T19:06:45.462Z,19.80
2023-01-08T19:09:12.252Z,18.70
2023-01-08T19:11:39.090Z,17.90
2023-01-08T19:14:05.942Z,16.00
2023-01-08T19:16:33.978Z,16.70
2023-01-08T19:19:02.095Z,16.50
2023-01-08T19:21:29.520Z,17.90
2023-01-08T19:23:56.606Z,14.80
2023-01-08T19:26:23.623Z,18.50
2023-01-08T19:28:50.459Z,15.50
2023-01-08T19:31:17.525Z,16.30
2023-01-08T19:33:45.777Z,15.30
2023-01-08T19:36:15.390Z,14.00
2023-01-08T19:38:42.843Z,18.80
2023-01-08T19:41:30.081Z,17.00
2023-01-08T19:43:57.313Z,17.50
2023-01-08T19:46:24.260Z,16.90
2023-01-08T19:48:51.411Z,17.60
2023-01-08T19:51:18.359Z,17.20
2023-01-08T19:53:45.875Z,21.00
2023-01-08T19:56:13.589Z,14.10
2023-01-08T19:58:40.518Z,15.90
2023-01-08T20:01:21.347Z,14.80
2023-01-08T20:03:48.462Z,14.90
2023-01-08T20:06:20.424Z,16.70
2023-01-08T20:08:53.101Z,15.80
2023-01-08T20:11:20.736Z,18.50
2023-01-08T20:13:47.886Z,17.40
2023-01-08T20:16:15.901Z,18.00
2023-01-08T20:18:43.003Z,19.00
2023-01-08T20:21:16.398Z,19.70
2023-01-08T20:23:44.079Z,17.80
2023-01-08T20:26:16.951Z,15.50
2023-01-08T20:28:44.498Z,18.00
2023-01-08T20:31:16.000Z,14.10
2023-01-08T20:33:43.316Z,16.10
2023-01-08T20:36:12.611Z,16.80
2023-01-08T20:38:39.652Z,16.70
2023-01-08T20:41:06.747Z,17.60
2023-01-08T20:43:34.455Z,15.00
2023-01-08T20:46:01.702Z,18.30
2023-01-08T20:48:34.272Z,17.90
2023-01-08T20:51:04.607Z,15.30
2023-01-08T20:53:35.864Z,15.10
2023-01-08T20:56:11.323Z,14.50
2023-01-08T20:58:39.469Z,12.40
2023-01-08T21:01:07.383Z,18.20
2023-01-08T21:03:35.896Z,17.80
2023-01-08T21:06:07.501Z,19.00
2023-01-08T21:08:35.238Z,17.40
2023-01-08T21:11:05.671Z,18.50
2023-01-08T21:13:33.216Z,18.00
2023-01-08T21:16:01.844Z,16.70
2023-01-08T21:18:29.049Z,15.80
2023-01-08T21:21:00.033Z,14.60
2023-01-08T21:23:27.753Z,18.00
2023-01-08T21:26:05.340Z,16.30
2023-01-08T21:28:32.904Z,15.60
2023-01-08T21:31:13.439Z,15.40
2023-01-08T21:33:40.733Z,15.10
2023-01-08T21:36:09.984Z,15.70
2023-01-08T21:38:36.863Z,14.50
2023-01-08T21:41:05.545Z,15.80
2023-01-08T21:43:51.361Z,18.90
2023-01-08T21:46:18.389Z,17.20
2023-01-08T21:48:49.522Z,15.20
2023-01-08T21:51:35.001Z,17.00
2023-01-08T21:54:02.358Z,19.70
2023-01-08T21:56:29.624Z,15.30
2023-01-08T21:58:56.554Z,17.00
2023-01-08T22:01:23.598Z,14.90
2023-01-08T22:03:50.561Z,16.60
2023-01-08T22:06:18.644Z,16.70
2023-01-08T22:08:51.090Z,15.50
2023-01-08T22:11:18.874Z,16.10
2023-01-08T22:13:45.700Z,17.00
2023-01-08T22:16:15.218Z,19.30
2023-01-08T22:18:42.964Z,18.40
2023-01-08T22:21:12.160Z,16.50
2023-01-08T22:23:39.104Z,14.20
2023-01-08T22:26:07.069Z,17.80
2023-01-08T22:28:38.825Z,13.70
2023-01-08T22:31:09.690Z,14.50
2023-01-08T22:33:37.016Z,15.10
2023-01-08T22:36:05.606Z,17.00
2023-01-08T22:38:32.351Z,14.70
2023-01-08T22:40:59.095Z,18.40
2023-01-08T22:43:25.923Z,14.70
2023-01-08T22:45:59.688Z,15.10
2023-01-08T22:48:26.874Z,17.10
2023-01-08T22:50:53.930Z,16.10
2023-01-08T22:53:21.182Z,15.00
2023-01-08T22:55:48.348Z,16.40
2023-01-08T22:58:15.880Z,15.00
2023-01-08T23:00:43.234Z,16.20
2023-01-08T23:03:10.791Z,15.20
2023-01-08T23:05:37.757Z,18.20
2023-01-08T23:08:06.319Z,18.50
2023-01-08T23:10:35.012Z,17.80
2023-01-08T23:13:01.848Z,16.40
2023-01-08T23:15:29.928Z,17.00
2023-01-08T23:17:56.862Z,19.30
2023-01-08T23:20:24.633Z,16.50
2023-01-08T23:22:51.479Z,16.40
2023-01-08T23:25:18.302Z,17.70
2023-01-08T23:27:46.296Z,17.00
2023-01-08T23:30:13.216Z,15.10
2023-01-08T23:32:40.513Z,15.80
2023-01-08T23:35:08.747Z,15.60
2023-01-08T23:37:36.653Z,16.00
2023-01-08T23:40:04.373Z,14.80
2023-01-08T23:42:31.315Z,15.10
2023-01-08T23:44:58.283Z,12.30
2023-01-08T23:47:25.513Z,15.50
2023-01-08T23:49:52.261Z,18.10
2023-01-08T23:52:19.192Z,19.50
2023-01-08T23:54:46.352Z,16.80
2023-01-08T23:57:13.538Z,17.20
2023-01-08T23:59:40.365Z,15.70
